sensor_id;sensor_type;location;lat;lon;timestamp;P1;durP1;ratioP1;P2;durP2;ratioP2
9156;SDS011;4613;48.392;9.998;2022-09-02T00:02:30;2.13;;;1.93;;
9156;SDS011;4613;48.392;9.998;2022-09-02T00:05:01;2.97;;;1.90;;
9156;SDS011;4613;48.392;9.998;2022-09-02T00:07:33;1.87;;;1.77;;
9156;SDS011;4613;48.392;9.998;2022-09-02T00:10:05;1.73;;;1.63;;
9156;SDS011;4613;48.392;9.998;2022-09-02T00:12:36;1.80;;;1.70;;
9156;SDS011;4613;48.392;9.998;2022-09-02T00:15:07;2.00;;;1.90;;
9156;SDS011;4613;48.392;9.998;2022-09-02T00:17:38;1.90;;;1.80;;
9156;SDS011;4613;48.392;9.998;2022-09-02T00:20:09;1.73;;;1.63;;
9156;SDS011;4613;48.392;9.998;2022-09-02T00:22:40;1.83;;;1.67;;
9156;SDS011;4613;48.392;9.998;2022-09-02T00:25:11;1.80;;;1.70;;
9156;SDS011;4613;48.392;9.998;2022-09-02T00:27:42;1.80;;;1.70;;
9156;SDS011;4613;48.392;9.998;2022-09-02T00:30:13;1.90;;;1.80;;
9156;SDS011;4613;48.392;9.998;2022-09-02T00:32:45;1.80;;;1.70;;
9156;SDS011;4613;48.392;9.998;2022-09-02T00:35:16;1.63;;;1.53;;
9156;SDS011;4613;48.392;9.998;2022-09-02T00:37:48;1.80;;;1.70;;
9156;SDS011;4613;48.392;9.998;2022-09-02T00:40:20;2.03;;;1.60;;
9156;SDS011;4613;48.392;9.998;2022-09-02T00:42:52;2.70;;;1.90;;
9156;SDS011;4613;48.392;9.998;2022-09-02T00:45:23;1.80;;;1.70;;
9156;SDS011;4613;48.392;9.998;2022-09-02T00:47:54;1.70;;;1.60;;
9156;SDS011;4613;48.392;9.998;2022-09-02T00:50:26;2.70;;;2.00;;
9156;SDS011;4613;48.392;9.998;2022-09-02T00:53:02;1.60;;;1.50;;
9156;SDS011;4613;48.392;9.998;2022-09-02T00:55:39;1.80;;;1.70;;
9156;SDS011;4613;48.392;9.998;2022-09-02T00:58:16;1.80;;;1.70;;
9156;SDS011;4613;48.392;9.998;2022-09-02T01:00:56;1.77;;;1.50;;
9156;SDS011;4613;48.392;9.998;2022-09-02T01:03:29;1.90;;;1.80;;
9156;SDS011;4613;48.392;9.998;2022-09-02T01:06:02;1.80;;;1.70;;
9156;SDS011;4613;48.392;9.998;2022-09-02T01:08:34;1.67;;;1.57;;
9156;SDS011;4613;48.392;9.998;2022-09-02T01:11:09;1.90;;;1.80;;
9156;SDS011;4613;48.392;9.998;2022-09-02T01:13:41;2.33;;;1.70;;
9156;SDS011;4613;48.392;9.998;2022-09-02T01:16:16;1.73;;;1.63;;
9156;SDS011;4613;48.392;9.998;2022-09-02T01:18:54;1.80;;;1.70;;
9156;SDS011;4613;48.392;9.998;2022-09-02T01:21:27;1.90;;;1.80;;
9156;SDS011;4613;48.392;9.998;2022-09-02T01:23:58;1.77;;;1.67;;
9156;SDS011;4613;48.392;9.998;2022-09-02T01:26:29;1.90;;;1.80;;
9156;SDS011;4613;48.392;9.998;2022-09-02T01:29:00;1.70;;;1.60;;
9156;SDS011;4613;48.392;9.998;2022-09-02T01:31:31;1.80;;;1.70;;
9156;SDS011;4613;48.392;9.998;2022-09-02T01:34:03;1.77;;;1.67;;
9156;SDS011;4613;48.392;9.998;2022-09-02T01:36:39;1.60;;;1.50;;
9156;SDS011;4613;48.392;9.998;2022-09-02T01:39:12;2.40;;;1.87;;
9156;SDS011;4613;48.392;9.998;2022-09-02T01:41:44;1.70;;;1.60;;
9156;SDS011;4613;48.392;9.998;2022-09-02T01:44:15;1.97;;;1.87;;
9156;SDS011;4613;48.392;9.998;2022-09-02T01:46:47;2.00;;;1.80;;
9156;SDS011;4613;48.392;9.998;2022-09-02T01:49:18;1.57;;;1.47;;
9156;SDS011;4613;48.392;9.998;2022-09-02T01:51:54;1.77;;;1.67;;
9156;SDS011;4613;48.392;9.998;2022-09-02T01:54:25;1.90;;;1.80;;
9156;SDS011;4613;48.392;9.998;2022-09-02T01:56:56;2.70;;;1.90;;
9156;SDS011;4613;48.392;9.998;2022-09-02T01:59:28;1.80;;;1.70;;
9156;SDS011;4613;48.392;9.998;2022-09-02T02:01:59;1.63;;;1.53;;
9156;SDS011;4613;48.392;9.998;2022-09-02T02:04:30;1.80;;;1.70;;
9156;SDS011;4613;48.392;9.998;2022-09-02T02:07:01;1.67;;;1.57;;
9156;SDS011;4613;48.392;9.998;2022-09-02T02:09:33;1.80;;;1.70;;
9156;SDS011;4613;48.392;9.998;2022-09-02T02:12:04;1.67;;;1.57;;
9156;SDS011;4613;48.392;9.998;2022-09-02T02:14:37;1.67;;;1.57;;
9156;SDS011;4613;48.392;9.998;2022-09-02T02:17:08;1.63;;;1.53;;
9156;SDS011;4613;48.392;9.998;2022-09-02T02:19:39;1.73;;;1.63;;
9156;SDS011;4613;48.392;9.998;2022-09-02T02:22:10;1.73;;;1.63;;
9156;SDS011;4613;48.392;9.998;2022-09-02T02:24:43;1.93;;;1.83;;
9156;SDS011;4613;48.392;9.998;2022-09-02T02:27:14;2.00;;;1.90;;
9156;SDS011;4613;48.392;9.998;2022-09-02T02:29:45;1.63;;;1.53;;
9156;SDS011;4613;48.392;9.998;2022-09-02T02:32:16;1.80;;;1.70;;
9156;SDS011;4613;48.392;9.998;2022-09-02T02:34:48;1.90;;;1.80;;
9156;SDS011;4613;48.392;9.998;2022-09-02T02:37:19;2.53;;;1.77;;
9156;SDS011;4613;48.392;9.998;2022-09-02T02:39:52;1.80;;;1.70;;
9156;SDS011;4613;48.392;9.998;2022-09-02T02:42:23;1.90;;;1.80;;
9156;SDS011;4613;48.392;9.998;2022-09-02T02:44:54;1.70;;;1.60;;
9156;SDS011;4613;48.392;9.998;2022-09-02T02:47:26;2.07;;;1.97;;
9156;SDS011;4613;48.392;9.998;2022-09-02T02:49:57;1.77;;;1.67;;
9156;SDS011;4613;48.392;9.998;2022-09-02T02:52:28;1.93;;;1.73;;
9156;SDS011;4613;48.392;9.998;2022-09-02T02:54:59;1.90;;;1.80;;
9156;SDS011;4613;48.392;9.998;2022-09-02T02:57:30;1.87;;;1.77;;
9156;SDS011;4613;48.392;9.998;2022-09-02T03:00:23;2.23;;;1.80;;
9156;SDS011;4613;48.392;9.998;2022-09-02T03:02:58;2.00;;;1.90;;
9156;SDS011;4613;48.392;9.998;2022-09-02T03:05:32;2.07;;;1.93;;
9156;SDS011;4613;48.392;9.998;2022-09-02T03:08:07;4.40;;;3.33;;
9156;SDS011;4613;48.392;9.998;2022-09-02T03:10:40;2.27;;;2.07;;
9156;SDS011;4613;48.392;9.998;2022-09-02T03:13:12;2.00;;;1.90;;
9156;SDS011;4613;48.392;9.998;2022-09-02T03:15:46;2.00;;;1.90;;
9156;SDS011;4613;48.392;9.998;2022-09-02T03:18:18;1.73;;;1.63;;
9156;SDS011;4613;48.392;9.998;2022-09-02T03:20:51;1.80;;;1.70;;
9156;SDS011;4613;48.392;9.998;2022-09-02T03:23:23;1.80;;;1.70;;
9156;SDS011;4613;48.392;9.998;2022-09-02T03:25:54;2.37;;;2.17;;
9156;SDS011;4613;48.392;9.998;2022-09-02T03:28:34;2.00;;;1.90;;
9156;SDS011;4613;48.392;9.998;2022-09-02T03:31:11;1.97;;;1.87;;
9156;SDS011;4613;48.392;9.998;2022-09-02T03:33:47;5.00;;;2.10;;
9156;SDS011;4613;48.392;9.998;2022-09-02T03:38:56;2.00;;;1.90;;
9156;SDS011;4613;48.392;9.998;2022-09-02T03:41:28;2.17;;;2.07;;
9156;SDS011;4613;48.392;9.998;2022-09-02T03:44:00;2.00;;;1.90;;
9156;SDS011;4613;48.392;9.998;2022-09-02T03:46:33;1.93;;;1.83;;
9156;SDS011;4613;48.392;9.998;2022-09-02T03:49:05;2.30;;;2.10;;
9156;SDS011;4613;48.392;9.998;2022-09-02T03:51:40;1.73;;;1.63;;
9156;SDS011;4613;48.392;9.998;2022-09-02T03:54:13;1.83;;;1.73;;
9156;SDS011;4613;48.392;9.998;2022-09-02T03:56:45;1.77;;;1.67;;
9156;SDS011;4613;48.392;9.998;2022-09-02T03:59:17;2.03;;;1.93;;
9156;SDS011;4613;48.392;9.998;2022-09-02T04:01:49;2.10;;;2.00;;
9156;SDS011;4613;48.392;9.998;2022-09-02T04:04:21;1.90;;;1.80;;
9156;SDS011;4613;48.392;9.998;2022-09-02T04:06:53;2.00;;;1.90;;
9156;SDS011;4613;48.392;9.998;2022-09-02T04:09:24;1.90;;;1.80;;
9156;SDS011;4613;48.392;9.998;2022-09-02T04:11:56;1.83;;;1.73;;
9156;SDS011;4613;48.392;9.998;2022-09-02T04:14:27;5.60;;;3.77;;
9156;SDS011;4613;48.392;9.998;2022-09-02T04:16:58;2.03;;;1.93;;
9156;SDS011;4613;48.392;9.998;2022-09-02T04:19:30;1.93;;;1.83;;
9156;SDS011;4613;48.392;9.998;2022-09-02T04:22:01;1.60;;;1.50;;
9156;SDS011;4613;48.392;9.998;2022-09-02T04:24:35;2.00;;;1.90;;
9156;SDS011;4613;48.392;9.998;2022-09-02T04:27:05;2.20;;;2.00;;
9156;SDS011;4613;48.392;9.998;2022-09-02T04:29:39;2.20;;;1.97;;
9156;SDS011;4613;48.392;9.998;2022-09-02T04:32:10;1.93;;;1.83;;
9156;SDS011;4613;48.392;9.998;2022-09-02T04:34:41;2.27;;;2.03;;
9156;SDS011;4613;48.392;9.998;2022-09-02T04:37:12;2.13;;;1.97;;
9156;SDS011;4613;48.392;9.998;2022-09-02T04:39:44;2.17;;;1.97;;
9156;SDS011;4613;48.392;9.998;2022-09-02T04:42:15;1.90;;;1.80;;
9156;SDS011;4613;48.392;9.998;2022-09-02T04:44:46;1.87;;;1.77;;
9156;SDS011;4613;48.392;9.998;2022-09-02T04:47:18;1.80;;;1.70;;
9156;SDS011;4613;48.392;9.998;2022-09-02T04:49:49;2.13;;;2.00;;
9156;SDS011;4613;48.392;9.998;2022-09-02T04:52:21;1.90;;;1.80;;
9156;SDS011;4613;48.392;9.998;2022-09-02T04:54:53;2.00;;;1.90;;
9156;SDS011;4613;48.392;9.998;2022-09-02T04:57:25;1.63;;;1.53;;
9156;SDS011;4613;48.392;9.998;2022-09-02T04:59:56;1.80;;;1.70;;
9156;SDS011;4613;48.392;9.998;2022-09-02T05:02:27;2.20;;;2.00;;
9156;SDS011;4613;48.392;9.998;2022-09-02T05:04:59;1.93;;;1.83;;
9156;SDS011;4613;48.392;9.998;2022-09-02T05:07:37;2.00;;;1.90;;
9156;SDS011;4613;48.392;9.998;2022-09-02T05:10:08;1.90;;;1.80;;
9156;SDS011;4613;48.392;9.998;2022-09-02T05:12:44;2.20;;;2.00;;
9156;SDS011;4613;48.392;9.998;2022-09-02T05:15:15;1.97;;;1.87;;
9156;SDS011;4613;48.392;9.998;2022-09-02T05:17:47;2.17;;;1.97;;
9156;SDS011;4613;48.392;9.998;2022-09-02T05:20:19;2.07;;;1.87;;
9156;SDS011;4613;48.392;9.998;2022-09-02T05:22:50;2.17;;;1.97;;
9156;SDS011;4613;48.392;9.998;2022-09-02T05:25:21;1.90;;;1.80;;
9156;SDS011;4613;48.392;9.998;2022-09-02T05:27:53;1.90;;;1.80;;
9156;SDS011;4613;48.392;9.998;2022-09-02T05:30:24;1.93;;;1.83;;
9156;SDS011;4613;48.392;9.998;2022-09-02T05:32:55;1.90;;;1.80;;
9156;SDS011;4613;48.392;9.998;2022-09-02T05:35:27;1.90;;;1.80;;
9156;SDS011;4613;48.392;9.998;2022-09-02T05:37:58;1.80;;;1.70;;
9156;SDS011;4613;48.392;9.998;2022-09-02T05:40:30;1.80;;;1.70;;
9156;SDS011;4613;48.392;9.998;2022-09-02T05:43:02;1.80;;;1.70;;
9156;SDS011;4613;48.392;9.998;2022-09-02T05:45:33;1.77;;;1.67;;
9156;SDS011;4613;48.392;9.998;2022-09-02T05:48:09;1.90;;;1.80;;
9156;SDS011;4613;48.392;9.998;2022-09-02T05:51:06;2.30;;;2.10;;
9156;SDS011;4613;48.392;9.998;2022-09-02T05:53:38;1.97;;;1.87;;
9156;SDS011;4613;48.392;9.998;2022-09-02T05:56:09;1.80;;;1.70;;
9156;SDS011;4613;48.392;9.998;2022-09-02T05:58:40;1.90;;;1.80;;
9156;SDS011;4613;48.392;9.998;2022-09-02T06:01:13;1.80;;;1.70;;
9156;SDS011;4613;48.392;9.998;2022-09-02T06:03:45;1.83;;;1.73;;
9156;SDS011;4613;48.392;9.998;2022-09-02T06:06:16;1.70;;;1.60;;
9156;SDS011;4613;48.392;9.998;2022-09-02T06:08:48;1.73;;;1.63;;
9156;SDS011;4613;48.392;9.998;2022-09-02T06:11:20;1.90;;;1.80;;
9156;SDS011;4613;48.392;9.998;2022-09-02T06:13:52;1.60;;;1.50;;
9156;SDS011;4613;48.392;9.998;2022-09-02T06:16:24;1.60;;;1.50;;
9156;SDS011;4613;48.392;9.998;2022-09-02T06:18:56;1.60;;;1.50;;
9156;SDS011;4613;48.392;9.998;2022-09-02T06:21:27;1.73;;;1.63;;
9156;SDS011;4613;48.392;9.998;2022-09-02T06:24:05;1.73;;;1.63;;
9156;SDS011;4613;48.392;9.998;2022-09-02T06:26:39;1.80;;;1.70;;
9156;SDS011;4613;48.392;9.998;2022-09-02T06:29:10;1.60;;;1.50;;
9156;SDS011;4613;48.392;9.998;2022-09-02T06:31:43;1.70;;;1.60;;
9156;SDS011;4613;48.392;9.998;2022-09-02T06:34:16;1.80;;;1.70;;
9156;SDS011;4613;48.392;9.998;2022-09-02T06:36:51;1.70;;;1.60;;
9156;SDS011;4613;48.392;9.998;2022-09-02T06:39:23;1.90;;;1.80;;
9156;SDS011;4613;48.392;9.998;2022-09-02T06:41:57;1.70;;;1.60;;
9156;SDS011;4613;48.392;9.998;2022-09-02T06:44:31;1.57;;;1.47;;
9156;SDS011;4613;48.392;9.998;2022-09-02T06:47:02;1.73;;;1.63;;
9156;SDS011;4613;48.392;9.998;2022-09-02T06:49:35;1.80;;;1.70;;
9156;SDS011;4613;48.392;9.998;2022-09-02T06:52:06;2.13;;;1.87;;
9156;SDS011;4613;48.392;9.998;2022-09-02T06:54:40;1.80;;;1.70;;
9156;SDS011;4613;48.392;9.998;2022-09-02T06:57:18;1.77;;;1.67;;
9156;SDS011;4613;48.392;9.998;2022-09-02T06:59:49;2.00;;;1.90;;
9156;SDS011;4613;48.392;9.998;2022-09-02T07:02:22;1.67;;;1.57;;
9156;SDS011;4613;48.392;9.998;2022-09-02T07:04:54;2.00;;;1.90;;
9156;SDS011;4613;48.392;9.998;2022-09-02T07:07:41;1.80;;;1.70;;
9156;SDS011;4613;48.392;9.998;2022-09-02T07:10:17;1.90;;;1.80;;
9156;SDS011;4613;48.392;9.998;2022-09-02T07:12:53;1.83;;;1.73;;
9156;SDS011;4613;48.392;9.998;2022-09-02T07:15:25;1.80;;;1.70;;
9156;SDS011;4613;48.392;9.998;2022-09-02T07:17:57;1.80;;;1.70;;
9156;SDS011;4613;48.392;9.998;2022-09-02T07:20:42;1.90;;;1.80;;
9156;SDS011;4613;48.392;9.998;2022-09-02T07:23:15;1.83;;;1.73;;
9156;SDS011;4613;48.392;9.998;2022-09-02T07:25:47;2.00;;;1.90;;
9156;SDS011;4613;48.392;9.998;2022-09-02T07:28:18;1.80;;;1.70;;
9156;SDS011;4613;48.392;9.998;2022-09-02T07:30:50;2.00;;;1.90;;
9156;SDS011;4613;48.392;9.998;2022-09-02T07:33:24;1.90;;;1.80;;
9156;SDS011;4613;48.392;9.998;2022-09-02T07:35:56;2.63;;;2.43;;
9156;SDS011;4613;48.392;9.998;2022-09-02T07:38:26;1.80;;;1.70;;
9156;SDS011;4613;48.392;9.998;2022-09-02T07:40:59;2.20;;;2.00;;
9156;SDS011;4613;48.392;9.998;2022-09-02T07:43:35;2.23;;;2.10;;
9156;SDS011;4613;48.392;9.998;2022-09-02T07:46:08;1.83;;;1.73;;
9156;SDS011;4613;48.392;9.998;2022-09-02T07:48:39;1.73;;;1.63;;
9156;SDS011;4613;48.392;9.998;2022-09-02T07:51:11;1.70;;;1.60;;
9156;SDS011;4613;48.392;9.998;2022-09-02T07:53:43;2.00;;;1.90;;
9156;SDS011;4613;48.392;9.998;2022-09-02T07:56:14;2.10;;;1.90;;
9156;SDS011;4613;48.392;9.998;2022-09-02T07:58:48;1.80;;;1.70;;
9156;SDS011;4613;48.392;9.998;2022-09-02T08:01:20;1.90;;;1.80;;
9156;SDS011;4613;48.392;9.998;2022-09-02T08:03:52;2.00;;;1.90;;
9156;SDS011;4613;48.392;9.998;2022-09-02T08:06:28;1.73;;;1.63;;
9156;SDS011;4613;48.392;9.998;2022-09-02T08:09:01;1.90;;;1.80;;
9156;SDS011;4613;48.392;9.998;2022-09-02T08:11:41;1.70;;;1.60;;
9156;SDS011;4613;48.392;9.998;2022-09-02T08:14:17;1.87;;;1.77;;
9156;SDS011;4613;48.392;9.998;2022-09-02T08:16:54;1.73;;;1.63;;
9156;SDS011;4613;48.392;9.998;2022-09-02T08:19:26;2.43;;;1.80;;
9156;SDS011;4613;48.392;9.998;2022-09-02T08:22:04;2.03;;;1.50;;
9156;SDS011;4613;48.392;9.998;2022-09-02T08:24:37;1.60;;;1.50;;
9156;SDS011;4613;48.392;9.998;2022-09-02T08:27:08;2.03;;;1.83;;
9156;SDS011;4613;48.392;9.998;2022-09-02T08:29:39;1.70;;;1.60;;
9156;SDS011;4613;48.392;9.998;2022-09-02T08:32:10;1.70;;;1.60;;
9156;SDS011;4613;48.392;9.998;2022-09-02T08:34:43;1.70;;;1.60;;
9156;SDS011;4613;48.392;9.998;2022-09-02T08:37:13;1.67;;;1.57;;
9156;SDS011;4613;48.392;9.998;2022-09-02T08:39:48;1.80;;;1.70;;
9156;SDS011;4613;48.392;9.998;2022-09-02T08:42:30;1.70;;;1.60;;
9156;SDS011;4613;48.392;9.998;2022-09-02T08:45:53;1.50;;;1.40;;
9156;SDS011;4613;48.392;9.998;2022-09-02T08:48:07;1.63;;;1.53;;
9156;SDS011;4613;48.392;9.998;2022-09-02T08:51:06;1.53;;;1.47;;
9156;SDS011;4613;48.392;9.998;2022-09-02T08:53:52;1.70;;;1.60;;
9156;SDS011;4613;48.392;9.998;2022-09-02T08:56:30;1.73;;;1.63;;
9156;SDS011;4613;48.392;9.998;2022-09-02T08:59:01;1.70;;;1.60;;
9156;SDS011;4613;48.392;9.998;2022-09-02T09:04:13;1.70;;;1.60;;
9156;SDS011;4613;48.392;9.998;2022-09-02T09:18:43;1.50;;;1.40;;
9156;SDS011;4613;48.392;9.998;2022-09-02T09:21:33;1.70;;;1.60;;
9156;SDS011;4613;48.392;9.998;2022-09-02T09:27:00;1.60;;;1.50;;
9156;SDS011;4613;48.392;9.998;2022-09-02T09:29:38;1.40;;;1.30;;
9156;SDS011;4613;48.392;9.998;2022-09-02T09:34:57;2.93;;;1.40;;
9156;SDS011;4613;48.392;9.998;2022-09-02T09:53:29;1.00;;;1.00;;
9156;SDS011;4613;48.392;9.998;2022-09-02T09:56:06;1.20;;;1.20;;
9156;SDS011;4613;48.392;9.998;2022-09-02T09:58:52;1.20;;;1.10;;
9156;SDS011;4613;48.392;9.998;2022-09-02T10:01:24;1.30;;;1.30;;
9156;SDS011;4613;48.392;9.998;2022-09-02T10:04:03;1.40;;;1.30;;
9156;SDS011;4613;48.392;9.998;2022-09-02T10:06:42;1.40;;;1.30;;
9156;SDS011;4613;48.392;9.998;2022-09-02T10:14:45;1.30;;;1.20;;
9156;SDS011;4613;48.392;9.998;2022-09-02T10:17:26;1.23;;;1.20;;
9156;SDS011;4613;48.392;9.998;2022-09-02T10:37:01;1.00;;;1.00;;
9156;SDS011;4613;48.392;9.998;2022-09-02T10:43:04;1.10;;;1.10;;
9156;SDS011;4613;48.392;9.998;2022-09-02T10:45:42;1.00;;;1.00;;
9156;SDS011;4613;48.392;9.998;2022-09-02T10:49:17;1.10;;;1.10;;
9156;SDS011;4613;48.392;9.998;2022-09-02T10:56:21;1.00;;;1.00;;
9156;SDS011;4613;48.392;9.998;2022-09-02T10:58:58;0.93;;;0.93;;
9156;SDS011;4613;48.392;9.998;2022-09-02T11:02:24;1.20;;;1.10;;
9156;SDS011;4613;48.392;9.998;2022-09-02T11:07:20;0.90;;;0.90;;
9156;SDS011;4613;48.392;9.998;2022-09-02T11:10:07;0.93;;;0.93;;
9156;SDS011;4613;48.392;9.998;2022-09-02T11:15:57;0.90;;;0.90;;
9156;SDS011;4613;48.392;9.998;2022-09-02T11:18:48;0.90;;;0.90;;
9156;SDS011;4613;48.392;9.998;2022-09-02T11:24:43;0.90;;;0.90;;
9156;SDS011;4613;48.392;9.998;2022-09-02T11:27:32;1.00;;;1.00;;
9156;SDS011;4613;48.392;9.998;2022-09-02T11:30:14;1.37;;;1.27;;
9156;SDS011;4613;48.392;9.998;2022-09-02T11:35:34;1.00;;;1.00;;
9156;SDS011;4613;48.392;9.998;2022-09-02T11:41:16;1.00;;;1.00;;
9156;SDS011;4613;48.392;9.998;2022-09-02T11:58:40;0.90;;;0.90;;
9156;SDS011;4613;48.392;9.998;2022-09-02T12:01:18;1.00;;;1.00;;
9156;SDS011;4613;48.392;9.998;2022-09-02T12:03:57;1.00;;;1.00;;
9156;SDS011;4613;48.392;9.998;2022-09-02T12:06:30;1.00;;;1.00;;
9156;SDS011;4613;48.392;9.998;2022-09-02T12:09:03;0.80;;;0.80;;
9156;SDS011;4613;48.392;9.998;2022-09-02T12:24:58;1.00;;;1.00;;
9156;SDS011;4613;48.392;9.998;2022-09-02T12:27:34;1.10;;;1.00;;
9156;SDS011;4613;48.392;9.998;2022-09-02T12:30:10;0.90;;;0.90;;
9156;SDS011;4613;48.392;9.998;2022-09-02T12:40:40;1.00;;;1.00;;
9156;SDS011;4613;48.392;9.998;2022-09-02T12:43:44;0.93;;;0.93;;
9156;SDS011;4613;48.392;9.998;2022-09-02T12:46:50;0.93;;;0.93;;
9156;SDS011;4613;48.392;9.998;2022-09-02T12:52:38;0.90;;;0.90;;
9156;SDS011;4613;48.392;9.998;2022-09-02T12:55:25;0.80;;;0.80;;
9156;SDS011;4613;48.392;9.998;2022-09-02T12:58:10;0.90;;;0.90;;
9156;SDS011;4613;48.392;9.998;2022-09-02T13:00:53;1.10;;;1.10;;
9156;SDS011;4613;48.392;9.998;2022-09-02T13:03:43;1.00;;;1.00;;
9156;SDS011;4613;48.392;9.998;2022-09-02T13:06:24;1.00;;;1.00;;
9156;SDS011;4613;48.392;9.998;2022-09-02T13:18:11;0.80;;;0.80;;
9156;SDS011;4613;48.392;9.998;2022-09-02T13:24:05;0.90;;;0.90;;
9156;SDS011;4613;48.392;9.998;2022-09-02T13:27:00;0.90;;;0.90;;
9156;SDS011;4613;48.392;9.998;2022-09-02T13:29:50;0.90;;;0.90;;
9156;SDS011;4613;48.392;9.998;2022-09-02T13:32:35;0.63;;;0.63;;
9156;SDS011;4613;48.392;9.998;2022-09-02T13:35:15;0.90;;;0.90;;
9156;SDS011;4613;48.392;9.998;2022-09-02T13:37:52;1.00;;;1.00;;
9156;SDS011;4613;48.392;9.998;2022-09-02T13:40:30;0.90;;;0.90;;
9156;SDS011;4613;48.392;9.998;2022-09-02T13:45:43;1.00;;;1.00;;
9156;SDS011;4613;48.392;9.998;2022-09-02T13:50:51;0.90;;;0.90;;
9156;SDS011;4613;48.392;9.998;2022-09-02T13:53:30;0.90;;;0.90;;
9156;SDS011;4613;48.392;9.998;2022-09-02T13:56:22;0.90;;;0.90;;
9156;SDS011;4613;48.392;9.998;2022-09-02T13:58:54;0.93;;;0.93;;
9156;SDS011;4613;48.392;9.998;2022-09-02T14:01:32;0.90;;;0.90;;
9156;SDS011;4613;48.392;9.998;2022-09-02T14:04:08;1.07;;;1.07;;
9156;SDS011;4613;48.392;9.998;2022-09-02T14:06:44;1.00;;;1.00;;
9156;SDS011;4613;48.392;9.998;2022-09-02T14:09:18;0.90;;;0.90;;
9156;SDS011;4613;48.392;9.998;2022-09-02T14:11:58;1.17;;;1.00;;
9156;SDS011;4613;48.392;9.998;2022-09-02T14:14:32;1.00;;;1.00;;
9156;SDS011;4613;48.392;9.998;2022-09-02T14:20:08;0.90;;;0.90;;
9156;SDS011;4613;48.392;9.998;2022-09-02T14:22:55;1.00;;;1.00;;
9156;SDS011;4613;48.392;9.998;2022-09-02T14:25:36;1.00;;;1.00;;
9156;SDS011;4613;48.392;9.998;2022-09-02T14:28:18;0.90;;;0.90;;
9156;SDS011;4613;48.392;9.998;2022-09-02T14:31:02;0.83;;;0.83;;
9156;SDS011;4613;48.392;9.998;2022-09-02T14:41:24;0.90;;;0.90;;
9156;SDS011;4613;48.392;9.998;2022-09-02T14:44:09;0.90;;;0.90;;
9156;SDS011;4613;48.392;9.998;2022-09-02T14:46:52;1.00;;;1.00;;
9156;SDS011;4613;48.392;9.998;2022-09-02T14:51:58;0.90;;;0.90;;
9156;SDS011;4613;48.392;9.998;2022-09-02T15:00:09;0.90;;;0.90;;
9156;SDS011;4613;48.392;9.998;2022-09-02T15:02:43;0.90;;;0.90;;
9156;SDS011;4613;48.392;9.998;2022-09-02T15:05:16;0.90;;;0.90;;
9156;SDS011;4613;48.392;9.998;2022-09-02T15:07:48;0.90;;;0.90;;
9156;SDS011;4613;48.392;9.998;2022-09-02T15:10:19;0.90;;;0.90;;
9156;SDS011;4613;48.392;9.998;2022-09-02T15:12:51;0.97;;;0.97;;
9156;SDS011;4613;48.392;9.998;2022-09-02T15:15:24;1.07;;;1.07;;
9156;SDS011;4613;48.392;9.998;2022-09-02T15:17:56;0.90;;;0.90;;
9156;SDS011;4613;48.392;9.998;2022-09-02T15:20:28;1.00;;;1.00;;
9156;SDS011;4613;48.392;9.998;2022-09-02T15:23:00;0.90;;;0.90;;
9156;SDS011;4613;48.392;9.998;2022-09-02T15:25:31;0.90;;;0.90;;
9156;SDS011;4613;48.392;9.998;2022-09-02T15:28:03;1.10;;;1.10;;
9156;SDS011;4613;48.392;9.998;2022-09-02T15:30:34;0.90;;;0.90;;
9156;SDS011;4613;48.392;9.998;2022-09-02T15:33:06;1.00;;;1.00;;
9156;SDS011;4613;48.392;9.998;2022-09-02T15:35:38;1.10;;;1.00;;
9156;SDS011;4613;48.392;9.998;2022-09-02T15:38:09;0.77;;;0.77;;
9156;SDS011;4613;48.392;9.998;2022-09-02T15:40:40;0.87;;;0.87;;
9156;SDS011;4613;48.392;9.998;2022-09-02T15:43:11;0.87;;;0.87;;
9156;SDS011;4613;48.392;9.998;2022-09-02T15:45:46;0.90;;;0.90;;
9156;SDS011;4613;48.392;9.998;2022-09-02T15:48:19;0.90;;;0.90;;
9156;SDS011;4613;48.392;9.998;2022-09-02T15:50:50;1.20;;;1.00;;
9156;SDS011;4613;48.392;9.998;2022-09-02T15:53:21;0.90;;;0.90;;
9156;SDS011;4613;48.392;9.998;2022-09-02T15:55:52;0.87;;;0.87;;
9156;SDS011;4613;48.392;9.998;2022-09-02T15:58:23;0.90;;;0.90;;
9156;SDS011;4613;48.392;9.998;2022-09-02T16:00:54;0.90;;;0.90;;
9156;SDS011;4613;48.392;9.998;2022-09-02T16:03:25;0.80;;;0.80;;
9156;SDS011;4613;48.392;9.998;2022-09-02T16:06:01;1.00;;;1.00;;
9156;SDS011;4613;48.392;9.998;2022-09-02T16:08:33;0.90;;;0.90;;
9156;SDS011;4613;48.392;9.998;2022-09-02T16:11:05;0.97;;;0.97;;
9156;SDS011;4613;48.392;9.998;2022-09-02T16:13:37;0.97;;;0.97;;
9156;SDS011;4613;48.392;9.998;2022-09-02T16:16:09;1.00;;;1.00;;
9156;SDS011;4613;48.392;9.998;2022-09-02T16:18:42;0.93;;;0.93;;
9156;SDS011;4613;48.392;9.998;2022-09-02T16:21:13;1.00;;;1.00;;
9156;SDS011;4613;48.392;9.998;2022-09-02T16:23:44;0.87;;;0.87;;
9156;SDS011;4613;48.392;9.998;2022-09-02T16:26:29;1.00;;;1.00;;
9156;SDS011;4613;48.392;9.998;2022-09-02T16:29:02;1.00;;;1.00;;
9156;SDS011;4613;48.392;9.998;2022-09-02T16:31:36;0.90;;;0.90;;
9156;SDS011;4613;48.392;9.998;2022-09-02T16:34:09;1.10;;;1.10;;
9156;SDS011;4613;48.392;9.998;2022-09-02T16:36:45;1.00;;;1.00;;
9156;SDS011;4613;48.392;9.998;2022-09-02T16:39:22;0.90;;;0.90;;
9156;SDS011;4613;48.392;9.998;2022-09-02T16:41:54;0.90;;;0.90;;
9156;SDS011;4613;48.392;9.998;2022-09-02T16:44:27;1.00;;;1.00;;
9156;SDS011;4613;48.392;9.998;2022-09-02T16:46:58;1.20;;;1.20;;
9156;SDS011;4613;48.392;9.998;2022-09-02T16:49:29;1.10;;;1.10;;
9156;SDS011;4613;48.392;9.998;2022-09-02T16:52:00;1.03;;;1.03;;
9156;SDS011;4613;48.392;9.998;2022-09-02T16:54:31;0.90;;;0.90;;
9156;SDS011;4613;48.392;9.998;2022-09-02T16:57:02;0.90;;;0.90;;
9156;SDS011;4613;48.392;9.998;2022-09-02T16:59:33;0.93;;;0.93;;
9156;SDS011;4613;48.392;9.998;2022-09-02T17:02:04;0.80;;;0.80;;
9156;SDS011;4613;48.392;9.998;2022-09-02T17:04:35;0.90;;;0.90;;
9156;SDS011;4613;48.392;9.998;2022-09-02T17:07:06;0.80;;;0.80;;
9156;SDS011;4613;48.392;9.998;2022-09-02T17:09:37;0.97;;;0.97;;
9156;SDS011;4613;48.392;9.998;2022-09-02T17:12:08;1.00;;;1.00;;
9156;SDS011;4613;48.392;9.998;2022-09-02T17:14:39;0.90;;;0.90;;
9156;SDS011;4613;48.392;9.998;2022-09-02T17:17:10;0.90;;;0.90;;
9156;SDS011;4613;48.392;9.998;2022-09-02T17:19:45;0.90;;;0.90;;
9156;SDS011;4613;48.392;9.998;2022-09-02T17:22:16;0.97;;;0.97;;
9156;SDS011;4613;48.392;9.998;2022-09-02T17:24:47;0.80;;;0.80;;
9156;SDS011;4613;48.392;9.998;2022-09-02T17:27:18;1.00;;;1.00;;
9156;SDS011;4613;48.392;9.998;2022-09-02T17:29:50;0.90;;;0.90;;
9156;SDS011;4613;48.392;9.998;2022-09-02T17:32:21;1.00;;;1.00;;
9156;SDS011;4613;48.392;9.998;2022-09-02T17:34:53;1.10;;;1.07;;
9156;SDS011;4613;48.392;9.998;2022-09-02T17:37:24;1.13;;;1.13;;
9156;SDS011;4613;48.392;9.998;2022-09-02T17:39:57;2.23;;;1.10;;
9156;SDS011;4613;48.392;9.998;2022-09-02T17:42:28;1.00;;;1.00;;
9156;SDS011;4613;48.392;9.998;2022-09-02T17:44:59;1.10;;;1.10;;
9156;SDS011;4613;48.392;9.998;2022-09-02T17:47:30;0.97;;;0.97;;
9156;SDS011;4613;48.392;9.998;2022-09-02T17:50:03;0.97;;;0.90;;
9156;SDS011;4613;48.392;9.998;2022-09-02T17:52:34;1.00;;;1.00;;
9156;SDS011;4613;48.392;9.998;2022-09-02T17:55:05;1.43;;;1.33;;
9156;SDS011;4613;48.392;9.998;2022-09-02T17:57:39;0.97;;;0.97;;
9156;SDS011;4613;48.392;9.998;2022-09-02T18:00:35;1.17;;;1.17;;
9156;SDS011;4613;48.392;9.998;2022-09-02T18:05:56;1.63;;;1.53;;
9156;SDS011;4613;48.392;9.998;2022-09-02T18:11:28;1.50;;;1.40;;
9156;SDS011;4613;48.392;9.998;2022-09-02T18:16:39;1.10;;;1.10;;
9156;SDS011;4613;48.392;9.998;2022-09-02T18:39:26;1.30;;;1.20;;
9156;SDS011;4613;48.392;9.998;2022-09-02T18:47:49;1.40;;;1.37;;
9156;SDS011;4613;48.392;9.998;2022-09-02T18:50:49;1.57;;;1.47;;
9156;SDS011;4613;48.392;9.998;2022-09-02T18:53:56;1.43;;;1.33;;
9156;SDS011;4613;48.392;9.998;2022-09-02T18:56:34;1.50;;;1.40;;
9156;SDS011;4613;48.392;9.998;2022-09-02T18:59:09;1.50;;;1.40;;
9156;SDS011;4613;48.392;9.998;2022-09-02T19:01:44;1.57;;;1.20;;
9156;SDS011;4613;48.392;9.998;2022-09-02T19:04:17;1.10;;;1.10;;
9156;SDS011;4613;48.392;9.998;2022-09-02T19:06:48;1.20;;;1.20;;
9156;SDS011;4613;48.392;9.998;2022-09-02T19:09:19;1.37;;;1.30;;
9156;SDS011;4613;48.392;9.998;2022-09-02T19:11:54;1.33;;;1.30;;
9156;SDS011;4613;48.392;9.998;2022-09-02T19:14:29;1.07;;;1.07;;
9156;SDS011;4613;48.392;9.998;2022-09-02T19:17:00;1.73;;;1.10;;